createdAt,value
2023-04-18T00:00:06.132Z,83.7883
2023-04-18T00:01:07.133Z,83.8806
2023-04-18T00:02:08.263Z,84.0637
2023-04-18T00:03:09.528Z,83.9146
2023-04-18T00:04:10.524Z,83.7474
2023-04-18T00:05:11.429Z,83.9779
2023-04-18T00:06:12.355Z,83.5740
2023-04-18T00:07:13.390Z,83.4415
2023-04-18T00:08:14.477Z,83.4649
2023-04-18T00:09:15.486Z,83.3929
2023-04-18T00:10:16.511Z,83.3802
2023-04-18T00:11:17.532Z,83.4069
2023-04-18T00:12:18.570Z,83.3731
2023-04-18T00:13:19.673Z,83.3789
2023-04-18T00:14:20.664Z,83.7318
2023-04-18T00:15:21.695Z,83.5834
2023-04-18T00:16:22.816Z,83.5156
2023-04-18T00:17:23.825Z,83.4345
2023-04-18T00:18:24.851Z,83.3903
2023-04-18T00:19:25.856Z,83.6734
2023-04-18T00:20:26.893Z,83.4337
2023-04-18T00:21:27.963Z,83.5893
2023-04-18T00:22:28.973Z,83.8151
2023-04-18T00:23:30.055Z,83.0531
2023-04-18T00:24:31.030Z,82.9612
2023-04-18T00:25:32.117Z,83.2166
2023-04-18T00:26:33.109Z,83.5529
2023-04-18T00:27:34.176Z,83.3578
2023-04-18T00:28:35.267Z,83.3305
2023-04-18T00:29:36.237Z,83.3518
2023-04-18T00:30:37.354Z,83.4835
2023-04-18T00:31:38.323Z,83.2249
2023-04-18T00:32:39.410Z,83.4172
2023-04-18T00:33:40.461Z,83.5397
2023-04-18T00:34:41.462Z,83.7973
2023-04-18T00:35:42.475Z,83.5933
2023-04-18T00:36:43.546Z,83.5894
2023-04-18T00:37:44.615Z,83.5010
2023-04-18T00:38:45.658Z,83.3353
2023-04-18T00:39:46.621Z,83.4157
2023-04-18T00:40:47.689Z,83.3501
2023-04-18T00:41:48.687Z,83.5187
2023-04-18T00:42:49.754Z,83.4369
2023-04-18T00:43:50.737Z,83.4266
2023-04-18T00:44:51.731Z,83.7589
2023-04-18T00:45:52.754Z,83.7421
2023-04-18T00:46:53.792Z,83.6069
2023-04-18T00:47:54.884Z,83.6380
2023-04-18T00:48:55.893Z,83.6077
2023-04-18T00:49:56.941Z,83.6132
2023-04-18T00:50:57.944Z,83.4857
2023-04-18T00:51:58.996Z,83.4413
2023-04-18T00:53:00.048Z,83.6285
2023-04-18T00:54:01.124Z,83.5834
2023-04-18T00:55:02.115Z,83.4321
2023-04-18T00:56:03.170Z,83.3096
2023-04-18T00:57:04.196Z,83.5198
2023-04-18T00:58:05.241Z,83.3394
2023-04-18T00:59:06.314Z,83.7414
2023-04-18T01:00:07.312Z,83.7290
2023-04-18T01:01:08.393Z,83.2810
2023-04-18T01:02:09.420Z,83.4292
2023-04-18T01:03:10.715Z,83.5812
2023-04-18T01:04:11.699Z,83.4410
2023-04-18T01:05:12.503Z,83.4637
2023-04-18T01:06:13.545Z,83.6008
2023-04-18T01:07:14.577Z,83.4680
2023-04-18T01:08:15.619Z,83.4163
2023-04-18T01:09:16.712Z,83.2688
2023-04-18T01:10:17.709Z,83.5910
2023-04-18T01:11:18.754Z,83.5916
2023-04-18T01:12:19.781Z,83.2536
2023-04-18T01:13:20.826Z,83.5460
2023-04-18T01:14:21.916Z,83.3678
2023-04-18T01:15:22.946Z,83.4562
2023-04-18T01:16:24.069Z,83.3312
2023-04-18T01:17:25.015Z,83.3376
2023-04-18T01:18:26.007Z,83.1849
2023-04-18T01:19:27.115Z,83.1917
2023-04-18T01:20:28.110Z,83.3360
2023-04-18T01:21:29.164Z,83.3356
2023-04-18T01:22:30.187Z,83.4121
2023-04-18T01:23:31.240Z,83.8557
2023-04-18T01:24:32.297Z,83.5131
2023-04-18T01:25:33.303Z,83.3517
2023-04-18T01:26:34.351Z,83.3987
2023-04-18T01:27:35.382Z,83.6273
2023-04-18T01:28:36.428Z,83.7183
2023-04-18T01:29:38.959Z,83.4484
2023-04-18T01:30:38.583Z,83.6559
2023-04-18T01:31:39.596Z,83.5836
2023-04-18T01:32:40.736Z,83.6048
2023-04-18T01:33:41.643Z,83.9379
2023-04-18T01:34:42.707Z,83.8166
2023-04-18T01:35:43.735Z,83.7201
2023-04-18T01:36:44.765Z,83.6592
2023-04-18T01:37:45.809Z,83.7457
2023-04-18T01:38:46.848Z,83.7190
2023-04-18T01:39:47.919Z,83.7849
2023-04-18T01:40:48.917Z,83.7982
2023-04-18T01:41:49.946Z,83.7314
2023-04-18T01:42:51.009Z,84.0854
2023-04-18T01:43:52.034Z,83.8976
2023-04-18T01:44:53.109Z,84.1934
2023-04-18T01:45:54.104Z,83.9673
2023-04-18T01:46:55.204Z,84.0287
2023-04-18T01:47:56.272Z,83.9542
2023-04-18T01:48:57.234Z,84.0479
2023-04-18T01:49:58.286Z,83.9976
2023-04-18T01:50:59.310Z,83.8771
2023-04-18T01:52:00.360Z,84.0116
2023-04-18T01:53:01.394Z,84.2404
2023-04-18T01:54:02.425Z,84.1564
2023-04-18T01:55:03.480Z,84.0394
2023-04-18T01:56:04.497Z,84.1245
2023-04-18T01:57:05.539Z,84.2881
2023-04-18T01:58:06.577Z,84.2013
2023-04-18T01:59:07.620Z,84.0012
2023-04-18T02:00:08.682Z,84.1374
2023-04-18T02:01:09.734Z,84.1740
2023-04-18T02:02:10.822Z,84.1378
2023-04-18T02:03:11.832Z,84.2681
2023-04-18T02:04:13.158Z,84.3727
2023-04-18T02:05:13.879Z,84.4964
2023-04-18T02:06:14.954Z,84.7642
2023-04-18T02:07:15.967Z,84.4735
2023-04-18T02:08:16.945Z,84.4563
2023-04-18T02:09:17.992Z,84.5977
2023-04-18T02:10:19.068Z,84.5051
2023-04-18T02:11:20.111Z,84.5406
2023-04-18T02:12:21.118Z,84.6052
2023-04-18T02:13:22.157Z,84.7979
2023-04-18T02:14:23.181Z,84.9980
2023-04-18T02:15:24.263Z,84.9345
2023-04-18T02:16:25.281Z,84.9762
2023-04-18T02:17:26.293Z,84.8221
2023-04-18T02:18:27.359Z,84.8890
2023-04-18T02:19:28.379Z,84.7487
2023-04-18T02:20:29.436Z,84.7878
2023-04-18T02:21:30.487Z,84.8167
2023-04-18T02:22:31.510Z,84.8870
2023-04-18T02:23:32.565Z,84.8330
2023-04-18T02:24:33.594Z,84.7458
2023-04-18T02:25:34.675Z,84.5420
2023-04-18T02:26:35.706Z,84.7450
2023-04-18T02:27:36.718Z,84.9810
2023-04-18T02:28:37.754Z,84.9376
2023-04-18T02:29:38.816Z,84.9181
2023-04-18T02:30:39.896Z,84.8435
2023-04-18T02:31:40.902Z,84.7893
2023-04-18T02:32:41.922Z,84.8450
2023-04-18T02:33:42.936Z,84.9476
2023-04-18T02:34:43.998Z,84.9710
2023-04-18T02:35:45.045Z,84.9499
2023-04-18T02:36:46.083Z,84.9436
2023-04-18T02:37:47.113Z,85.1514
2023-04-18T02:38:48.160Z,85.1696
2023-04-18T02:39:49.209Z,85.0516
2023-04-18T02:40:50.253Z,85.4902
2023-04-18T02:41:51.321Z,85.2653
2023-04-18T02:42:52.373Z,85.2361
2023-04-18T02:43:53.369Z,85.1956
2023-04-18T02:44:54.398Z,85.1983
2023-04-18T02:45:55.499Z,85.2414
2023-04-18T02:46:56.469Z,85.1255
2023-04-18T02:47:57.580Z,85.1020
2023-04-18T02:48:58.572Z,85.0378
2023-04-18T02:49:59.631Z,85.0476
2023-04-18T02:51:00.695Z,84.9649
2023-04-18T02:52:01.709Z,84.9566
2023-04-18T02:53:02.768Z,84.8893
2023-04-18T02:54:03.828Z,85.3682
2023-04-18T02:55:04.832Z,84.9266
2023-04-18T02:56:05.929Z,84.9593
2023-04-18T02:57:06.932Z,85.1696
2023-04-18T02:58:07.998Z,85.1742
2023-04-18T02:59:08.996Z,85.0891
2023-04-18T03:00:10.041Z,85.2827
2023-04-18T03:01:11.141Z,85.1425
2023-04-18T03:02:12.129Z,85.1281
2023-04-18T03:03:13.229Z,85.2732
2023-04-18T03:04:14.464Z,85.2119
2023-04-18T03:05:15.217Z,85.1451
2023-04-18T03:06:16.379Z,85.1760
2023-04-18T03:07:17.325Z,85.1877
2023-04-18T03:08:18.360Z,85.0537
2023-04-18T03:09:19.411Z,85.1529
2023-04-18T03:10:20.494Z,85.2370
2023-04-18T03:11:21.574Z,85.4050
2023-04-18T03:12:22.589Z,85.2187
2023-04-18T03:13:23.661Z,85.1409
2023-04-18T03:14:24.672Z,84.9978
2023-04-18T03:15:25.718Z,85.0375
2023-04-18T03:16:26.829Z,85.1085
2023-04-18T03:17:27.806Z,85.2138
2023-04-18T03:18:28.867Z,85.3022
2023-04-18T03:19:29.858Z,85.2383
2023-04-18T03:20:30.918Z,85.2255
2023-04-18T03:21:32.001Z,85.2858
2023-04-18T03:22:33.042Z,85.2571
2023-04-18T03:23:34.052Z,85.1760
2023-04-18T03:24:35.121Z,85.1763
2023-04-18T03:25:36.129Z,85.4109
2023-04-18T03:26:37.207Z,85.3776
2023-04-18T03:27:38.267Z,85.3505
2023-04-18T03:28:39.285Z,85.3118
2023-04-18T03:29:40.295Z,85.3024
2023-04-18T03:30:41.336Z,85.3233
2023-04-18T03:31:42.523Z,85.1774
2023-04-18T03:32:43.525Z,85.1939
2023-04-18T03:33:44.475Z,85.0884
2023-04-18T03:34:45.516Z,85.0375
2023-04-18T03:35:46.535Z,85.0791
2023-04-18T03:36:48.156Z,85.0344
2023-04-18T03:37:48.615Z,85.4643
2023-04-18T03:38:49.756Z,85.2212
2023-04-18T03:39:50.717Z,85.1771
2023-04-18T03:40:51.736Z,85.3172
2023-04-18T03:41:52.773Z,85.0759
2023-04-18T03:42:53.851Z,85.1320
2023-04-18T03:43:54.866Z,85.1439
2023-04-18T03:44:55.880Z,85.0980
2023-04-18T03:45:57.131Z,85.2579
2023-04-18T03:46:57.958Z,85.4072
2023-04-18T03:47:59.041Z,85.2872
2023-04-18T03:49:00.036Z,85.0742
2023-04-18T03:50:01.064Z,85.3624
2023-04-18T03:51:02.103Z,85.3192
2023-04-18T03:52:03.155Z,85.4189
2023-04-18T03:53:04.213Z,84.8612
2023-04-18T03:54:05.255Z,84.8251
2023-04-18T03:55:06.257Z,85.0528
2023-04-18T03:56:07.326Z,84.8729
2023-04-18T03:57:08.517Z,84.6548
2023-04-18T03:58:09.457Z,84.6180
2023-04-18T03:59:10.460Z,84.6573
2023-04-18T04:00:11.464Z,84.7905
2023-04-18T04:01:12.498Z,84.9431
2023-04-18T04:02:13.592Z,85.0728
2023-04-18T04:03:14.698Z,84.9041
2023-04-18T04:04:16.216Z,84.9648
2023-04-18T04:05:16.677Z,84.8716
2023-04-18T04:06:17.744Z,84.9153
2023-04-18T04:07:18.741Z,84.9105
2023-04-18T04:08:19.842Z,84.8317
2023-04-18T04:09:20.835Z,84.7121
2023-04-18T04:10:21.877Z,84.7621
2023-04-18T04:11:23.110Z,84.8753
2023-04-18T04:12:23.944Z,84.9199
2023-04-18T04:13:24.998Z,84.8524
2023-04-18T04:14:26.150Z,84.8153
2023-04-18T04:15:27.081Z,85.0257
2023-04-18T04:16:28.294Z,85.0053
2023-04-18T04:17:29.339Z,85.0072
2023-04-18T04:18:30.222Z,84.8981
2023-04-18T04:19:31.247Z,84.9391
2023-04-18T04:20:32.271Z,85.0472
2023-04-18T04:21:33.282Z,84.8704
2023-04-18T04:22:34.360Z,85.0361
2023-04-18T04:23:35.438Z,84.9073
2023-04-18T04:24:36.445Z,84.9983
2023-04-18T04:25:37.448Z,85.0810
2023-04-18T04:26:38.634Z,85.2682
2023-04-18T04:27:39.545Z,84.9866
2023-04-18T04:28:40.624Z,85.2642
2023-04-18T04:29:41.650Z,84.9119
2023-04-18T04:30:42.656Z,85.2938
2023-04-18T04:31:43.813Z,84.9726
2023-04-18T04:32:44.781Z,85.0050
2023-04-18T04:33:45.810Z,84.8423
2023-04-18T04:34:46.828Z,85.3862
2023-04-18T04:35:47.886Z,85.2444
2023-04-18T04:36:48.909Z,85.2046
2023-04-18T04:37:49.938Z,85.1786
2023-04-18T04:38:51.018Z,85.0965
2023-04-18T04:39:52.000Z,85.1338
2023-04-18T04:40:53.052Z,84.9857
2023-04-18T04:41:54.120Z,85.0443
2023-04-18T04:42:55.115Z,85.4528
2023-04-18T04:43:56.179Z,85.0578
2023-04-18T04:44:57.275Z,85.0841
2023-04-18T04:45:58.253Z,85.2383
2023-04-18T04:46:59.438Z,84.9410
2023-04-18T04:48:00.400Z,84.9658
2023-04-18T04:49:01.401Z,84.9194
2023-04-18T04:50:02.388Z,84.9854
2023-04-18T04:51:03.596Z,84.9553
2023-04-18T04:52:04.464Z,84.8852
2023-04-18T04:53:05.502Z,84.9600
2023-04-18T04:54:06.551Z,84.9399
2023-04-18T04:55:07.697Z,84.8462
2023-04-18T04:56:08.629Z,85.0316
2023-04-18T04:57:09.669Z,85.0227
2023-04-18T04:58:10.698Z,85.2313
2023-04-18T04:59:11.738Z,85.3544
2023-04-18T05:00:12.745Z,85.4167
2023-04-18T05:01:13.874Z,85.2894
2023-04-18T05:02:14.959Z,85.6342
2023-04-18T05:03:16.070Z,85.3894
2023-04-18T05:04:17.477Z,85.4258
2023-04-18T05:05:18.073Z,85.1402
2023-04-18T05:06:19.061Z,85.5646
2023-04-18T05:07:20.212Z,85.8914
2023-04-18T05:08:21.134Z,85.2635
2023-04-18T05:09:22.301Z,85.3126
2023-04-18T05:10:23.202Z,85.1789
2023-04-18T05:11:24.254Z,84.9815
2023-04-18T05:12:25.295Z,84.8289
2023-04-18T05:13:26.340Z,85.1248
2023-04-18T05:14:27.419Z,84.9729
2023-04-18T05:15:28.425Z,84.8800
2023-04-18T05:16:29.456Z,84.8207
2023-04-18T05:17:30.510Z,85.1397
2023-04-18T05:18:33.059Z,85.4894
2023-04-18T05:19:32.599Z,85.5245
2023-04-18T05:20:33.579Z,84.6984
2023-04-18T05:21:34.610Z,84.3859
2023-04-18T05:22:35.722Z,84.6434
2023-04-18T05:23:36.681Z,84.2860
2023-04-18T05:24:37.800Z,84.3167
2023-04-18T05:25:38.767Z,84.6836
2023-04-18T05:26:39.794Z,84.7278
2023-04-18T05:27:40.870Z,84.4281
2023-04-18T05:28:41.907Z,83.8213
2023-04-18T05:29:42.970Z,83.5707
2023-04-18T05:30:44.024Z,83.4355
2023-04-18T05:31:44.999Z,83.9131
2023-04-18T05:32:46.190Z,84.1056
2023-04-18T05:33:47.086Z,84.1105
2023-04-18T05:34:48.167Z,84.3615
2023-04-18T05:35:49.181Z,84.2290
2023-04-18T05:36:50.263Z,84.4850
2023-04-18T05:37:51.202Z,84.5034
2023-04-18T05:38:52.276Z,84.6988
2023-04-18T05:39:53.350Z,84.7812
2023-04-18T05:40:54.363Z,84.1319
2023-04-18T05:41:55.391Z,83.9036
2023-04-18T05:42:56.417Z,83.6055
2023-04-18T05:44:04.923Z,84.2841
2023-04-18T05:44:58.535Z,84.5210
2023-04-18T05:45:59.623Z,84.7615
2023-04-18T05:47:00.560Z,84.4438
2023-04-18T05:48:01.833Z,83.8587
2023-04-18T05:49:02.632Z,83.6379
2023-04-18T05:50:03.755Z,84.0344
2023-04-18T05:51:04.712Z,83.9360
2023-04-18T05:52:05.750Z,83.8513
2023-04-18T05:53:06.809Z,83.9139
2023-04-18T05:54:07.873Z,84.1615
2023-04-18T05:55:08.936Z,84.0627
2023-04-18T05:56:09.958Z,83.5315
2023-04-18T05:57:10.971Z,83.4512
2023-04-18T05:58:12.290Z,83.3650
2023-04-18T05:59:13.046Z,83.5159
2023-04-18T06:00:14.187Z,83.7936
2023-04-18T06:01:15.342Z,83.9769
2023-04-18T06:02:16.165Z,83.9921
2023-04-18T06:03:17.543Z,84.0711
2023-04-18T06:04:18.464Z,84.1269
2023-04-18T06:05:19.719Z,84.3304
2023-04-18T06:06:20.254Z,84.2717
2023-04-18T06:07:21.306Z,84.1417
2023-04-18T06:08:22.344Z,83.8071
2023-04-18T06:09:23.412Z,83.5113
2023-04-18T06:10:24.467Z,83.4700
2023-04-18T06:11:25.509Z,83.9179
2023-04-18T06:12:26.524Z,83.5224
2023-04-18T06:13:27.556Z,83.5532
2023-04-18T06:14:28.581Z,83.6166
2023-04-18T06:15:29.665Z,83.8887
2023-04-18T06:16:30.733Z,83.7515
2023-04-18T06:17:31.743Z,83.8913
2023-04-18T06:18:32.749Z,83.8959
2023-04-18T06:19:33.803Z,83.8063
2023-04-18T06:20:34.826Z,83.9792
2023-04-18T06:21:35.851Z,83.9393
2023-04-18T06:22:36.914Z,84.0763
2023-04-18T06:23:37.958Z,83.9794
2023-04-18T06:24:38.966Z,84.0470
2023-04-18T06:25:40.012Z,84.3846
2023-04-18T06:26:41.057Z,84.1404
2023-04-18T06:27:42.092Z,83.7207
2023-04-18T06:28:43.118Z,83.0637
2023-04-18T06:29:44.154Z,83.0584
2023-04-18T06:30:45.151Z,83.0533
2023-04-18T06:31:46.307Z,83.0941
2023-04-18T06:32:47.361Z,83.6527
2023-04-18T06:33:48.258Z,83.1355
2023-04-18T06:34:49.310Z,83.2274
2023-04-18T06:35:50.359Z,83.1407
2023-04-18T06:36:51.410Z,83.2128
2023-04-18T06:37:52.640Z,83.5850
2023-04-18T06:38:53.558Z,83.3380
2023-04-18T06:39:54.650Z,83.1812
2023-04-18T06:40:55.663Z,83.0756
2023-04-18T06:41:56.735Z,83.4636
2023-04-18T06:42:57.710Z,83.4238
2023-04-18T06:44:04.229Z,83.5246
2023-04-18T06:44:59.811Z,83.5253
2023-04-18T06:46:00.852Z,83.3658
2023-04-18T06:47:02.162Z,83.5834
2023-04-18T06:48:02.948Z,83.8372
2023-04-18T06:49:03.977Z,83.9189
2023-04-18T06:50:04.988Z,83.9824
2023-04-18T06:51:06.045Z,83.9806
2023-04-18T06:52:07.140Z,83.7383
2023-04-18T06:53:08.171Z,83.7970
2023-04-18T06:54:09.166Z,83.8967
2023-04-18T06:55:10.166Z,83.4507
2023-04-18T06:56:11.231Z,83.5298
2023-04-18T06:57:12.290Z,83.3929
2023-04-18T06:58:13.289Z,83.4495
2023-04-18T06:59:14.514Z,83.8711
2023-04-18T07:00:15.395Z,83.8055
2023-04-18T07:01:16.412Z,84.1652
2023-04-18T07:02:17.498Z,84.2426
2023-04-18T07:03:18.745Z,84.3066
2023-04-18T07:04:19.870Z,84.3316
2023-04-18T07:05:20.518Z,84.3444
2023-04-18T07:06:21.613Z,84.2506
2023-04-18T07:07:22.636Z,84.2872
2023-04-18T07:08:23.654Z,84.5589
2023-04-18T07:09:24.716Z,84.4918
2023-04-18T07:10:25.735Z,84.3500
2023-04-18T07:11:26.843Z,84.4332
2023-04-18T07:12:27.929Z,84.7853
2023-04-18T07:13:28.912Z,84.1733
2023-04-18T07:14:30.820Z,83.7811
2023-04-18T07:15:31.005Z,84.0129
2023-04-18T07:16:32.067Z,84.0607
2023-04-18T07:17:33.168Z,84.0812
2023-04-18T07:18:38.117Z,83.9413
2023-04-18T07:19:35.145Z,83.4781
2023-04-18T07:20:36.195Z,83.7936
2023-04-18T07:21:37.111Z,84.0119
2023-04-18T07:22:38.276Z,84.0016
2023-04-18T07:23:39.317Z,84.2128
2023-04-18T07:24:40.331Z,84.1557
2023-04-18T07:25:41.352Z,84.1188
2023-04-18T07:26:42.398Z,84.0754
2023-04-18T07:27:43.462Z,83.9286
2023-04-18T07:28:44.531Z,83.7061
2023-04-18T07:29:45.525Z,83.4280
2023-04-18T07:30:46.578Z,83.5510
2023-04-18T07:31:47.556Z,83.5211
2023-04-18T07:32:48.754Z,83.1207
2023-04-18T07:33:49.645Z,83.2576
2023-04-18T07:34:50.678Z,83.1078
2023-04-18T07:35:51.739Z,83.1344
2023-04-18T07:36:52.769Z,82.9984
2023-04-18T07:37:53.820Z,83.2775
2023-04-18T07:38:54.848Z,83.3989
2023-04-18T07:39:56.062Z,82.9682
2023-04-18T07:40:56.885Z,82.9807
2023-04-18T07:41:57.872Z,83.1141
2023-04-18T07:42:59.045Z,82.7129
2023-04-18T07:43:59.975Z,82.9294
2023-04-18T07:45:00.999Z,82.6632
2023-04-18T07:46:02.632Z,82.5850
2023-04-18T07:47:02.994Z,82.8182
2023-04-18T07:48:04.127Z,82.9894
2023-04-18T07:49:05.068Z,82.8415
2023-04-18T07:50:06.109Z,82.7505
2023-04-18T07:51:07.589Z,82.2972
2023-04-18T07:52:08.162Z,81.6353
2023-04-18T07:53:09.235Z,81.4963
2023-04-18T07:54:10.242Z,81.8014
2023-04-18T07:55:11.292Z,81.7858
2023-04-18T07:56:12.316Z,81.8688
2023-04-18T07:57:13.822Z,82.0303
2023-04-18T07:58:14.380Z,81.2785
2023-04-18T07:59:15.732Z,81.1109
2023-04-18T08:00:16.467Z,81.4845
2023-04-18T08:01:17.522Z,81.7925
2023-04-18T08:02:18.560Z,81.3829
2023-04-18T08:03:20.113Z,81.3334
2023-04-18T08:04:20.704Z,80.7629
2023-04-18T08:05:21.673Z,80.4747
2023-04-18T08:06:22.646Z,81.1523
2023-04-18T08:07:23.700Z,81.1420
2023-04-18T08:08:24.799Z,80.8623
2023-04-18T08:09:25.805Z,80.8234
2023-04-18T08:10:26.882Z,80.2817
2023-04-18T08:11:27.895Z,79.8786
2023-04-18T08:12:28.922Z,80.2581
2023-04-18T08:13:30.012Z,79.4856
2023-04-18T08:14:30.947Z,79.1038
2023-04-18T08:15:32.028Z,79.1420
2023-04-18T08:16:33.078Z,78.3057
2023-04-18T08:17:34.137Z,77.6305
2023-04-18T08:18:35.179Z,78.0876
2023-04-18T08:19:36.159Z,78.3180
2023-04-18T08:20:37.278Z,78.5201
2023-04-18T08:21:38.221Z,78.0984
2023-04-18T08:22:49.981Z,76.7472
2023-04-18T08:23:40.342Z,76.0095
2023-04-18T08:24:44.549Z,76.5282
2023-04-18T08:25:42.355Z,76.4080
2023-04-18T08:26:43.436Z,73.4502
2023-04-18T08:27:44.431Z,75.4674
2023-04-18T08:28:46.484Z,77.2557
2023-04-18T08:29:46.566Z,74.7447
2023-04-18T08:30:47.562Z,76.9492
2023-04-18T08:31:48.649Z,78.1853
2023-04-18T08:32:49.817Z,78.1071
2023-04-18T08:33:50.699Z,77.6107
2023-04-18T08:34:51.746Z,77.3817
2023-04-18T08:35:52.721Z,78.0546
2023-04-18T08:36:53.785Z,78.1201
2023-04-18T08:37:54.789Z,78.3186
2023-04-18T08:38:55.873Z,79.0679
2023-04-18T08:39:56.869Z,79.5756
2023-04-18T08:40:57.879Z,79.5542
2023-04-18T08:41:58.948Z,79.4919
2023-04-18T08:43:00.008Z,79.4317
2023-04-18T08:44:01.182Z,79.3935
2023-04-18T08:45:02.182Z,78.8984
2023-04-18T08:46:03.375Z,78.9107
2023-04-18T08:47:04.253Z,78.8779
2023-04-18T08:48:05.279Z,79.0005
2023-04-18T08:49:06.425Z,79.0213
2023-04-18T08:50:07.321Z,78.7469
2023-04-18T08:51:08.356Z,79.1515
2023-04-18T08:52:09.405Z,78.5289
2023-04-18T08:53:10.442Z,77.4760
2023-04-18T08:54:11.586Z,76.8589
2023-04-18T08:55:12.529Z,76.8557
2023-04-18T08:56:13.577Z,77.4337
2023-04-18T08:57:14.590Z,76.3517
2023-04-18T08:58:15.679Z,76.2500
2023-04-18T08:59:16.694Z,76.7018
2023-04-18T09:00:17.735Z,77.5386
2023-04-18T09:01:18.769Z,77.7076
2023-04-18T09:02:19.817Z,77.4238
2023-04-18T09:03:20.805Z,77.2007
2023-04-18T09:04:22.076Z,76.7748
2023-04-18T09:05:22.883Z,77.0420
2023-04-18T09:06:24.379Z,76.8505
2023-04-18T09:07:24.978Z,76.6566
2023-04-18T09:08:26.037Z,75.8682
2023-04-18T09:09:27.089Z,76.0782
2023-04-18T09:10:28.142Z,75.9984
2023-04-18T09:11:29.525Z,75.7252
2023-04-18T09:12:30.212Z,75.8040
2023-04-18T09:13:31.243Z,75.5611
2023-04-18T09:14:32.301Z,75.2718
2023-04-18T09:15:33.315Z,75.7018
2023-04-18T09:16:34.478Z,76.1172
2023-04-18T09:17:35.417Z,76.2003
2023-04-18T09:18:36.412Z,75.9587
2023-04-18T09:19:37.546Z,76.5886
2023-04-18T09:20:38.615Z,76.3862
2023-04-18T09:21:39.569Z,76.2828
2023-04-18T09:22:40.600Z,75.8923
2023-04-18T09:23:41.610Z,76.2491
2023-04-18T09:24:42.615Z,76.1322
2023-04-18T09:25:44.958Z,76.0075
2023-04-18T09:26:44.654Z,76.0413
2023-04-18T09:27:45.705Z,76.1683
2023-04-18T09:28:46.738Z,76.1500
2023-04-18T09:29:47.815Z,76.0591
2023-04-18T09:30:48.828Z,75.8282
2023-04-18T09:31:49.873Z,75.8328
2023-04-18T09:32:50.967Z,75.9464
2023-04-18T09:33:51.952Z,74.5318
2023-04-18T09:34:53.152Z,74.5242
2023-04-18T09:35:54.010Z,74.9172
2023-04-18T09:36:55.104Z,75.7349
2023-04-18T09:37:56.084Z,75.3054
2023-04-18T09:38:57.458Z,75.0918
2023-04-18T09:39:58.220Z,75.5180
2023-04-18T09:40:59.183Z,75.1313
2023-04-18T09:42:00.250Z,75.1976
2023-04-18T09:43:01.277Z,74.8971
2023-04-18T09:44:02.371Z,74.9176
2023-04-18T09:45:03.452Z,74.1782
2023-04-18T09:46:04.515Z,74.8906
2023-04-18T09:47:05.459Z,74.5927
2023-04-18T09:48:06.537Z,75.5425
2023-04-18T09:49:09.676Z,76.1993
2023-04-18T09:50:08.662Z,76.1041
2023-04-18T09:51:09.689Z,75.8474
2023-04-18T09:52:10.689Z,75.6921
2023-04-18T09:53:11.701Z,75.4548
2023-04-18T09:54:12.931Z,75.4582
2023-04-18T09:55:13.902Z,75.9060
2023-04-18T09:56:14.846Z,75.9353
2023-04-18T09:57:15.874Z,76.0314
2023-04-18T09:58:16.944Z,75.8911
2023-04-18T09:59:20.507Z,75.5144
2023-04-18T10:00:18.993Z,75.4684
2023-04-18T10:01:20.135Z,74.6639
2023-04-18T10:02:21.192Z,74.5720
2023-04-18T10:03:22.256Z,74.8265
2023-04-18T10:04:23.213Z,74.2435
2023-04-18T10:05:24.250Z,72.9310
2023-04-18T10:06:25.238Z,72.4326
2023-04-18T10:07:26.325Z,72.7216
2023-04-18T10:08:27.356Z,73.5917
2023-04-18T10:09:28.455Z,73.9597
2023-04-18T10:10:29.530Z,74.0308
2023-04-18T10:11:30.546Z,73.7024
2023-04-18T10:12:31.508Z,74.3593
2023-04-18T10:13:32.568Z,74.2972
2023-04-18T10:14:33.602Z,74.0762
2023-04-18T10:15:34.638Z,74.0912
2023-04-18T10:16:36.407Z,73.4381
2023-04-18T10:17:36.762Z,73.7438
2023-04-18T10:18:38.087Z,73.7446
2023-04-18T10:19:38.791Z,73.7334
2023-04-18T10:20:40.083Z,73.5088
2023-04-18T10:21:41.001Z,73.6210
2023-04-18T10:22:41.935Z,72.5543
2023-04-18T10:23:42.949Z,73.0744
2023-04-18T10:24:44.008Z,73.0143
2023-04-18T10:25:45.008Z,72.5455
2023-04-18T10:26:46.156Z,73.3520
2023-04-18T10:27:47.177Z,73.7945
2023-04-18T10:28:48.180Z,73.9105
2023-04-18T10:29:49.183Z,74.3644
2023-04-18T10:30:50.242Z,75.0760
2023-04-18T10:31:51.383Z,75.3191
2023-04-18T10:32:52.336Z,75.0008
2023-04-18T10:34:04.014Z,74.8382
2023-04-18T10:34:54.433Z,74.9527
2023-04-18T10:35:55.401Z,74.7413
2023-04-18T10:36:56.475Z,74.6176
2023-04-18T10:37:57.481Z,74.3476
2023-04-18T10:38:58.520Z,74.5343
2023-04-18T10:39:59.532Z,74.4626
2023-04-18T10:41:00.594Z,74.3097
2023-04-18T10:42:01.657Z,74.5833
2023-04-18T10:43:02.779Z,73.8419
2023-04-18T10:44:03.694Z,73.9566
2023-04-18T10:45:04.729Z,74.1479
2023-04-18T10:46:07.439Z,74.0397
2023-04-18T10:47:06.921Z,73.5049
2023-04-18T10:48:07.873Z,74.0228
2023-04-18T10:49:08.886Z,74.6220
2023-04-18T10:50:09.926Z,74.1696
2023-04-18T10:51:11.098Z,73.7323
2023-04-18T10:52:13.364Z,74.1884
2023-04-18T10:53:13.072Z,74.3733
2023-04-18T10:54:14.212Z,74.5441
2023-04-18T10:55:15.168Z,74.4023
2023-04-18T10:56:16.190Z,74.2002
2023-04-18T10:57:17.302Z,74.0584
2023-04-18T10:58:18.168Z,73.3327
2023-04-18T10:59:19.234Z,73.1474
2023-04-18T11:00:20.416Z,71.9426
2023-04-18T11:01:21.331Z,71.8821
2023-04-18T11:02:22.396Z,72.1425
2023-04-18T11:03:23.506Z,72.0667
2023-04-18T11:04:24.510Z,72.3477
2023-04-18T11:05:25.463Z,72.0713
2023-04-18T11:06:26.479Z,72.1833
2023-04-18T11:07:29.921Z,72.3235
2023-04-18T11:08:28.572Z,71.6389
2023-04-18T11:09:29.614Z,71.8317
2023-04-18T11:10:30.667Z,72.4673
2023-04-18T11:11:31.763Z,72.2759
2023-04-18T11:12:32.826Z,71.8633
2023-04-18T11:13:33.850Z,72.2599
2023-04-18T11:14:35.016Z,72.5024
2023-04-18T11:15:36.105Z,71.5285
2023-04-18T11:16:36.979Z,71.2776
2023-04-18T11:17:38.034Z,71.3691
2023-04-18T11:18:39.042Z,70.8551
2023-04-18T11:19:40.092Z,70.4976
2023-04-18T11:20:41.120Z,70.3030
2023-04-18T11:21:42.188Z,70.6524
2023-04-18T11:22:43.206Z,71.2700
2023-04-18T11:23:44.290Z,70.9742
2023-04-18T11:24:45.264Z,70.8526
2023-04-18T11:25:46.308Z,71.1911
2023-04-18T11:26:47.299Z,71.2619
2023-04-18T11:27:48.376Z,71.7713
2023-04-18T11:28:49.401Z,71.0110
2023-04-18T11:29:50.409Z,71.1531
2023-04-18T11:30:51.438Z,71.8579
2023-04-18T11:31:52.831Z,71.7827
2023-04-18T11:32:53.565Z,71.6503
2023-04-18T11:33:54.583Z,71.5594
2023-04-18T11:34:55.570Z,70.8620
2023-04-18T11:35:56.635Z,70.4586
2023-04-18T11:36:57.647Z,71.1362
2023-04-18T11:37:58.664Z,70.9859
2023-04-18T11:38:59.793Z,71.1971
2023-04-18T11:40:00.773Z,70.9879
2023-04-18T11:41:01.811Z,71.3116
2023-04-18T11:42:02.842Z,71.7012
2023-04-18T11:43:03.875Z,72.3974
2023-04-18T11:44:04.989Z,72.0114
2023-04-18T11:45:05.941Z,71.1984
2023-04-18T11:46:07.010Z,69.8380
2023-04-18T11:47:08.022Z,70.1758
2023-04-18T11:48:09.191Z,69.9612
2023-04-18T11:49:10.132Z,69.4992
2023-04-18T11:50:11.121Z,69.8355
2023-04-18T11:51:12.326Z,69.9975
2023-04-18T11:52:13.494Z,69.1309
2023-04-18T11:53:14.232Z,68.0869
2023-04-18T11:54:15.441Z,67.8895
2023-04-18T11:55:16.318Z,67.8860
2023-04-18T11:56:17.373Z,68.1469
2023-04-18T11:57:18.387Z,67.3517
2023-04-18T11:58:19.423Z,67.3075
2023-04-18T11:59:20.500Z,68.1366
2023-04-18T12:00:21.527Z,68.8965
2023-04-18T12:01:22.906Z,69.0722
2023-04-18T12:02:23.665Z,69.0670
2023-04-18T12:03:25.134Z,68.5805
2023-04-18T12:04:25.754Z,67.9944
2023-04-18T12:05:26.804Z,66.7424
2023-04-18T12:06:27.763Z,66.0861
2023-04-18T12:07:28.879Z,65.5577
2023-04-18T12:08:29.771Z,65.3945
2023-04-18T12:09:30.858Z,65.1989
2023-04-18T12:10:31.883Z,64.8781
2023-04-18T12:11:32.878Z,64.3317
2023-04-18T12:12:33.905Z,64.4865
2023-04-18T12:13:34.961Z,64.1089
2023-04-18T12:14:36.060Z,64.2350
2023-04-18T12:15:37.019Z,64.2853
2023-04-18T12:16:38.064Z,64.1993
2023-04-18T12:17:39.274Z,64.0668